Seattle, WA (98146)

6:45 PM PST on December 28, 2014 (GMT -0800)
Burien, WA | Change Station
CLOSE
Current Station
Personal Weather Station
Location: Burien, WA
Elevation: 413 ft
Nearby Weather Stations

Elev 413 ft 47.50 °N, 122.35 °W | Updated 6 seconds ago

Overcast
Overcast
40.2 °F
Feels Like 40 °F
N
0.0
Wind Variable Wind from ENE
Gusts 0.0 mph

Today
High -- | Low -- °F
--% Chance of Precip.
Yesterday
High -- | Low -- °F
Precip. -- in
7:56 AM 4:25 PM
First Quarter, 54% visible
Pressure 30.17 in
Visibility 10.0 miles
Clouds Mostly Cloudy 3500 ft
Mostly Cloudy 5000 ft
Overcast 10000 ft
Windchill 40 °F
Dew Point 39 °F
Humidity 96%
Rainfall 0.11 in
Snow Depth Not available.
UV 0 out of 12
Pollen .50 out of 12
Air Quality Not available.
Flu Activity Not available.
METAR KBFI 290153Z 08004KT 10SM BKN035 BKN050 OVC100 06/02 A3017 RMK AO2 RAE00 SLP215 P0000 T00610022

More Conditions Fewer Conditions

Pressure 30.17 in
Visibility 10.0 miles
Clouds Mostly Cloudy 3500 ft
Mostly Cloudy 5000 ft
Overcast 10000 ft
Windchill 40 °F
Dew Point 39 °F
Humidity 96%
Rainfall 0.11 in
Snow Depth Not available.
UV 0 out of 12
Pollen .50 out of 12
Air Quality Not available.
Flu Activity Not available.
METAR KBFI 290153Z 08004KT 10SM BKN035 BKN050 OVC100 06/02 A3017 RMK AO2 RAE00 SLP215 P0000 T00610022

More Conditions Fewer Conditions

10-Day Weather Forecast

Almanac

Astronomy

Dec. 28, 2014 Rise Set
Actual Time
Civil Twilight
Nautical Twilight
Astronomical Twilight
Moon
Length of Visible Light
Length of Day
Tomorrow will be .
, % of the Moon is Illuminated

Today's Extremes

State Highs State Lows

Community

WunderPhotos

Upload Photos

1,781,504 photos uploaded!

WunderBlogs® & News

Nearby

Air Quality

  Air Quality AQ Index Pollutant
Not available.

Snow Depth

Station Depth Elevation

Earthquake Activity

City Distance Mag. Time & Date
Minimum magnitude displayed is 2.5.

Coastal Water Temperatures

Place Temperature

Nearby Weather Stations